Goodfellow AFB, Texas
Current Conditions -  °F | °C
As of 7:51 AM on Thursday 27 Nov 2014 (Local Time) from KSJT Reporting Station
Clear Clear  
Wind Chill: 32°   Ceiling: Unl
Heat Index: 32°   Visibility: 10mi
Dew Point: 29°   Wind: 3mph
Humidity: 88%   Direction: 270°W
Pressure: 30.49"   Gusts: NA
Location:  31.45°N, 100.42°W
Report Text: KSJT 271351Z 27003KT 10SM CLR 00/M02 A3049 RMK AO2 SLP334 T00001017
Loading
Personal Weather Stations






























Interactive Weather Map New forecast layout! Learn more

10-Day Weather Forecast

Advertisements
Track Severe Weather on mobile